Аэропорт: Белгород . Белгород

ICAO: UUOB

METAR:
2022-06-26 11:30:00
UUOB 261130Z 05007MPS CAVOK 28/13 Q1018 R11/010070 NOSIG
METAR:
Информация по данной станции не доступна